Frankfort, New York
Current Conditions -  °F | °C
As of 10:53 PM on Tuesday 21 Oct 2014 (Local Time) from KRME Reporting Station
Overcast Overcast  
Wind Chill: 51°   Ceiling: 2600
Heat Index: 51°   Visibility: 10mi
Dew Point: 46°   Wind: 3mph
Humidity: 83%   Direction: 20°NNE
Pressure: 30.03"   Gusts: NA
Location:  43.04°N, 75.07°W
Report Text: KRME 220253Z AUTO 02003KT 10SM OVC026 11/08 A3003 RMK AO2 SLP169 T01060078 53019
Loading
Personal Weather Stations






























Interactive Weather Map
Tropical Storm Tracking
New forecast layout! Learn more

10-Day Weather Forecast

Advertisements
Track Severe Weather on mobile